sensor_id;sensor_type;location;lat;lon;timestamp;P1;durP1;ratioP1;P2;durP2;ratioP2
5754;SDS011;2902;42.130;24.732;2022-07-29T00:09:09;4.87;;;3.47;;
5754;SDS011;2902;42.130;24.732;2022-07-29T00:14:53;5.73;;;3.50;;
5754;SDS011;2902;42.130;24.732;2022-07-29T00:17:21;4.23;;;4.03;;
5754;SDS011;2902;42.130;24.732;2022-07-29T00:20:24;4.83;;;4.10;;
5754;SDS011;2902;42.130;24.732;2022-07-29T00:22:53;5.57;;;4.90;;
5754;SDS011;2902;42.130;24.732;2022-07-29T00:25:35;4.70;;;3.77;;
5754;SDS011;2902;42.130;24.732;2022-07-29T00:28:02;4.33;;;4.00;;
5754;SDS011;2902;42.130;24.732;2022-07-29T01:08:09;5.20;;;4.90;;
5754;SDS011;2902;42.130;24.732;2022-07-29T01:10:38;6.53;;;4.77;;
5754;SDS011;2902;42.130;24.732;2022-07-29T01:13:07;7.30;;;4.43;;
5754;SDS011;2902;42.130;24.732;2022-07-29T01:15:36;4.93;;;4.63;;
5754;SDS011;2902;42.130;24.732;2022-07-29T01:18:11;5.20;;;4.80;;
5754;SDS011;2902;42.130;24.732;2022-07-29T01:20:47;5.10;;;4.57;;
5754;SDS011;2902;42.130;24.732;2022-07-29T01:23:39;4.63;;;4.27;;
5754;SDS011;2902;42.130;24.732;2022-07-29T01:26:23;4.80;;;4.27;;
5754;SDS011;2902;42.130;24.732;2022-07-29T01:29:03;5.37;;;4.97;;
5754;SDS011;2902;42.130;24.732;2022-07-29T01:31:35;7.13;;;4.50;;
5754;SDS011;2902;42.130;24.732;2022-07-29T01:34:08;5.90;;;5.40;;
5754;SDS011;2902;42.130;24.732;2022-07-29T01:36:43;5.20;;;4.40;;
5754;SDS011;2902;42.130;24.732;2022-07-29T01:39:12;5.50;;;5.20;;
5754;SDS011;2902;42.130;24.732;2022-07-29T01:41:44;5.33;;;5.00;;
5754;SDS011;2902;42.130;24.732;2022-07-29T01:44:18;4.67;;;4.37;;
5754;SDS011;2902;42.130;24.732;2022-07-29T01:46:49;5.03;;;4.63;;
5754;SDS011;2902;42.130;24.732;2022-07-29T01:49:21;7.80;;;5.03;;
5754;SDS011;2902;42.130;24.732;2022-07-29T01:51:52;5.13;;;4.77;;
5754;SDS011;2902;42.130;24.732;2022-07-29T01:54:25;5.10;;;4.63;;
5754;SDS011;2902;42.130;24.732;2022-07-29T01:56:56;6.53;;;4.60;;
5754;SDS011;2902;42.130;24.732;2022-07-29T01:59:27;5.93;;;5.40;;
5754;SDS011;2902;42.130;24.732;2022-07-29T02:01:57;5.10;;;4.63;;
5754;SDS011;2902;42.130;24.732;2022-07-29T02:04:25;5.40;;;4.73;;
5754;SDS011;2902;42.130;24.732;2022-07-29T02:06:56;5.43;;;4.80;;
5754;SDS011;2902;42.130;24.732;2022-07-29T02:09:26;5.83;;;5.30;;
5754;SDS011;2902;42.130;24.732;2022-07-29T02:11:54;5.13;;;4.60;;
5754;SDS011;2902;42.130;24.732;2022-07-29T02:14:22;6.07;;;4.83;;
5754;SDS011;2902;42.130;24.732;2022-07-29T02:16:53;4.83;;;4.53;;
5754;SDS011;2902;42.130;24.732;2022-07-29T02:19:21;5.70;;;5.23;;
5754;SDS011;2902;42.130;24.732;2022-07-29T02:21:52;4.43;;;4.23;;
5754;SDS011;2902;42.130;24.732;2022-07-29T02:24:21;5.47;;;4.93;;
5754;SDS011;2902;42.130;24.732;2022-07-29T02:26:49;6.23;;;5.20;;
5754;SDS011;2902;42.130;24.732;2022-07-29T02:29:18;5.57;;;5.00;;
5754;SDS011;2902;42.130;24.732;2022-07-29T02:31:48;5.90;;;5.40;;
5754;SDS011;2902;42.130;24.732;2022-07-29T02:34:17;6.97;;;5.80;;
5754;SDS011;2902;42.130;24.732;2022-07-29T02:36:45;7.87;;;5.50;;
5754;SDS011;2902;42.130;24.732;2022-07-29T02:39:13;6.13;;;5.63;;
5754;SDS011;2902;42.130;24.732;2022-07-29T02:41:43;7.93;;;5.97;;
5754;SDS011;2902;42.130;24.732;2022-07-29T02:44:13;6.17;;;5.70;;
5754;SDS011;2902;42.130;24.732;2022-07-29T02:46:42;7.63;;;5.07;;
5754;SDS011;2902;42.130;24.732;2022-07-29T02:49:15;6.20;;;5.80;;
5754;SDS011;2902;42.130;24.732;2022-07-29T02:51:49;6.17;;;5.60;;
5754;SDS011;2902;42.130;24.732;2022-07-29T02:54:21;6.50;;;5.90;;
5754;SDS011;2902;42.130;24.732;2022-07-29T02:56:52;6.33;;;5.93;;
5754;SDS011;2902;42.130;24.732;2022-07-29T02:59:22;6.57;;;5.97;;
5754;SDS011;2902;42.130;24.732;2022-07-29T03:01:52;5.93;;;5.50;;
5754;SDS011;2902;42.130;24.732;2022-07-29T03:04:23;6.67;;;5.40;;
5754;SDS011;2902;42.130;24.732;2022-07-29T03:06:53;5.20;;;4.90;;
5754;SDS011;2902;42.130;24.732;2022-07-29T03:09:21;5.50;;;5.00;;
5754;SDS011;2902;42.130;24.732;2022-07-29T03:11:49;6.27;;;5.17;;
5754;SDS011;2902;42.130;24.732;2022-07-29T03:14:16;5.80;;;5.50;;
5754;SDS011;2902;42.130;24.732;2022-07-29T03:16:44;8.20;;;5.87;;
5754;SDS011;2902;42.130;24.732;2022-07-29T03:19:12;6.43;;;4.73;;
5754;SDS011;2902;42.130;24.732;2022-07-29T03:21:40;5.03;;;4.77;;
5754;SDS011;2902;42.130;24.732;2022-07-29T03:24:07;5.17;;;4.77;;
5754;SDS011;2902;42.130;24.732;2022-07-29T03:26:35;6.40;;;5.20;;
5754;SDS011;2902;42.130;24.732;2022-07-29T03:29:02;5.40;;;4.87;;
5754;SDS011;2902;42.130;24.732;2022-07-29T03:31:29;5.63;;;5.20;;
5754;SDS011;2902;42.130;24.732;2022-07-29T03:33:56;5.83;;;5.43;;
5754;SDS011;2902;42.130;24.732;2022-07-29T03:36:22;5.27;;;4.90;;
5754;SDS011;2902;42.130;24.732;2022-07-29T03:38:51;6.87;;;5.53;;
5754;SDS011;2902;42.130;24.732;2022-07-29T03:41:19;8.00;;;5.93;;
5754;SDS011;2902;42.130;24.732;2022-07-29T03:43:48;6.83;;;4.60;;
5754;SDS011;2902;42.130;24.732;2022-07-29T03:46:17;5.60;;;4.60;;
5754;SDS011;2902;42.130;24.732;2022-07-29T03:48:48;6.70;;;4.80;;
5754;SDS011;2902;42.130;24.732;2022-07-29T03:51:18;7.37;;;4.70;;
5754;SDS011;2902;42.130;24.732;2022-07-29T03:53:45;4.83;;;4.63;;
5754;SDS011;2902;42.130;24.732;2022-07-29T03:56:13;7.97;;;4.63;;
5754;SDS011;2902;42.130;24.732;2022-07-29T03:58:43;5.17;;;4.77;;
5754;SDS011;2902;42.130;24.732;2022-07-29T04:01:10;6.43;;;5.20;;
5754;SDS011;2902;42.130;24.732;2022-07-29T04:03:38;4.97;;;4.67;;
5754;SDS011;2902;42.130;24.732;2022-07-29T04:06:06;5.03;;;4.43;;
5754;SDS011;2902;42.130;24.732;2022-07-29T04:08:33;6.80;;;5.43;;
5754;SDS011;2902;42.130;24.732;2022-07-29T04:11:00;5.20;;;4.77;;
5754;SDS011;2902;42.130;24.732;2022-07-29T04:13:29;6.40;;;5.07;;
5754;SDS011;2902;42.130;24.732;2022-07-29T04:15:56;5.97;;;5.47;;
5754;SDS011;2902;42.130;24.732;2022-07-29T04:18:23;5.60;;;5.10;;
5754;SDS011;2902;42.130;24.732;2022-07-29T04:20:50;7.50;;;6.63;;
5754;SDS011;2902;42.130;24.732;2022-07-29T04:23:17;6.53;;;5.67;;
5754;SDS011;2902;42.130;24.732;2022-07-29T04:25:43;6.07;;;5.47;;
5754;SDS011;2902;42.130;24.732;2022-07-29T04:28:10;7.67;;;6.97;;
5754;SDS011;2902;42.130;24.732;2022-07-29T04:30:38;14.30;;;8.23;;
5754;SDS011;2902;42.130;24.732;2022-07-29T04:33:05;10.77;;;9.00;;
5754;SDS011;2902;42.130;24.732;2022-07-29T04:35:33;10.93;;;9.83;;
5754;SDS011;2902;42.130;24.732;2022-07-29T04:38:02;17.80;;;15.10;;
5754;SDS011;2902;42.130;24.732;2022-07-29T04:40:29;16.67;;;14.40;;
5754;SDS011;2902;42.130;24.732;2022-07-29T04:42:58;14.63;;;13.30;;
5754;SDS011;2902;42.130;24.732;2022-07-29T04:45:25;13.83;;;12.37;;
5754;SDS011;2902;42.130;24.732;2022-07-29T04:47:53;9.93;;;9.13;;
5754;SDS011;2902;42.130;24.732;2022-07-29T04:50:19;8.83;;;8.03;;
5754;SDS011;2902;42.130;24.732;2022-07-29T04:52:47;8.73;;;7.97;;
5754;SDS011;2902;42.130;24.732;2022-07-29T04:55:13;7.30;;;6.90;;
5754;SDS011;2902;42.130;24.732;2022-07-29T04:57:40;7.33;;;6.63;;
5754;SDS011;2902;42.130;24.732;2022-07-29T05:00:07;8.50;;;7.03;;
5754;SDS011;2902;42.130;24.732;2022-07-29T05:02:35;13.23;;;7.80;;
5754;SDS011;2902;42.130;24.732;2022-07-29T05:05:03;11.47;;;8.17;;
5754;SDS011;2902;42.130;24.732;2022-07-29T05:07:30;8.87;;;7.57;;
5754;SDS011;2902;42.130;24.732;2022-07-29T05:09:57;8.75;;;7.93;;
5754;SDS011;2902;42.130;24.732;2022-07-29T05:12:24;10.38;;;7.07;;
5754;SDS011;2902;42.130;24.732;2022-07-29T05:14:51;6.32;;;5.82;;
5754;SDS011;2902;42.130;24.732;2022-07-29T05:17:18;8.88;;;7.45;;
5754;SDS011;2902;42.130;24.732;2022-07-29T05:19:45;7.13;;;6.63;;
5754;SDS011;2902;42.130;24.732;2022-07-29T05:22:13;7.22;;;6.38;;
5754;SDS011;2902;42.130;24.732;2022-07-29T05:24:40;11.38;;;6.10;;
5754;SDS011;2902;42.130;24.732;2022-07-29T05:27:07;6.10;;;5.50;;
5754;SDS011;2902;42.130;24.732;2022-07-29T05:29:34;6.50;;;5.70;;
5754;SDS011;2902;42.130;24.732;2022-07-29T05:32:01;7.25;;;5.25;;
5754;SDS011;2902;42.130;24.732;2022-07-29T05:34:28;34.65;;;6.90;;
5754;SDS011;2902;42.130;24.732;2022-07-29T05:36:55;5.43;;;5.03;;
5754;SDS011;2902;42.130;24.732;2022-07-29T05:39:23;7.95;;;5.20;;
5754;SDS011;2902;42.130;24.732;2022-07-29T05:41:50;6.05;;;5.15;;
5754;SDS011;2902;42.130;24.732;2022-07-29T05:44:17;9.88;;;4.75;;
5754;SDS011;2902;42.130;24.732;2022-07-29T05:46:44;6.35;;;5.00;;
5754;SDS011;2902;42.130;24.732;2022-07-29T05:49:10;6.78;;;4.82;;
5754;SDS011;2902;42.130;24.732;2022-07-29T05:51:37;5.45;;;4.95;;
5754;SDS011;2902;42.130;24.732;2022-07-29T05:54:04;5.55;;;5.13;;
5754;SDS011;2902;42.130;24.732;2022-07-29T05:56:32;5.60;;;5.20;;
5754;SDS011;2902;42.130;24.732;2022-07-29T05:58:59;5.70;;;5.22;;
5754;SDS011;2902;42.130;24.732;2022-07-29T06:01:26;5.53;;;5.13;;
5754;SDS011;2902;42.130;24.732;2022-07-29T06:03:52;6.47;;;5.38;;
5754;SDS011;2902;42.130;24.732;2022-07-29T06:06:19;10.57;;;5.70;;
5754;SDS011;2902;42.130;24.732;2022-07-29T06:08:46;6.57;;;5.07;;
5754;SDS011;2902;42.130;24.732;2022-07-29T06:11:13;6.57;;;6.05;;
5754;SDS011;2902;42.130;24.732;2022-07-29T06:13:41;6.70;;;5.60;;
5754;SDS011;2902;42.130;24.732;2022-07-29T06:16:07;7.20;;;6.13;;
5754;SDS011;2902;42.130;24.732;2022-07-29T06:18:34;5.75;;;5.28;;
5754;SDS011;2902;42.130;24.732;2022-07-29T06:21:01;5.72;;;5.43;;
5754;SDS011;2902;42.130;24.732;2022-07-29T06:23:33;11.13;;;6.28;;
5754;SDS011;2902;42.130;24.732;2022-07-29T06:26:00;9.57;;;6.43;;
5754;SDS011;2902;42.130;24.732;2022-07-29T06:28:27;13.48;;;6.40;;
5754;SDS011;2902;42.130;24.732;2022-07-29T06:30:55;7.50;;;6.72;;
5754;SDS011;2902;42.130;24.732;2022-07-29T06:33:21;7.22;;;6.60;;
5754;SDS011;2902;42.130;24.732;2022-07-29T06:35:48;7.53;;;6.93;;
5754;SDS011;2902;42.130;24.732;2022-07-29T06:38:15;7.50;;;6.90;;
5754;SDS011;2902;42.130;24.732;2022-07-29T06:40:42;7.65;;;7.00;;
5754;SDS011;2902;42.130;24.732;2022-07-29T06:43:28;6.82;;;6.13;;
5754;SDS011;2902;42.130;24.732;2022-07-29T06:46:01;6.78;;;6.32;;
5754;SDS011;2902;42.130;24.732;2022-07-29T06:48:29;7.00;;;6.43;;
5754;SDS011;2902;42.130;24.732;2022-07-29T06:50:56;6.28;;;5.93;;
5754;SDS011;2902;42.130;24.732;2022-07-29T06:53:23;7.63;;;7.13;;
5754;SDS011;2902;42.130;24.732;2022-07-29T06:55:50;7.57;;;6.70;;
5754;SDS011;2902;42.130;24.732;2022-07-29T06:58:17;6.95;;;6.28;;
5754;SDS011;2902;42.130;24.732;2022-07-29T07:00:45;7.25;;;6.90;;
5754;SDS011;2902;42.130;24.732;2022-07-29T07:03:14;6.68;;;6.28;;
5754;SDS011;2902;42.130;24.732;2022-07-29T07:05:41;7.65;;;7.15;;
5754;SDS011;2902;42.130;24.732;2022-07-29T07:08:08;7.65;;;6.47;;
5754;SDS011;2902;42.130;24.732;2022-07-29T07:10:36;6.28;;;5.88;;
5754;SDS011;2902;42.130;24.732;2022-07-29T07:13:03;6.38;;;5.88;;
5754;SDS011;2902;42.130;24.732;2022-07-29T07:15:31;12.13;;;6.60;;
5754;SDS011;2902;42.130;24.732;2022-07-29T07:17:58;7.38;;;6.50;;
5754;SDS011;2902;42.130;24.732;2022-07-29T07:20:26;6.22;;;5.72;;
5754;SDS011;2902;42.130;24.732;2022-07-29T07:22:52;6.78;;;6.28;;
5754;SDS011;2902;42.130;24.732;2022-07-29T07:25:19;5.95;;;5.55;;
5754;SDS011;2902;42.130;24.732;2022-07-29T07:27:46;9.68;;;5.70;;
5754;SDS011;2902;42.130;24.732;2022-07-29T07:30:13;6.13;;;5.70;;
5754;SDS011;2902;42.130;24.732;2022-07-29T07:32:40;6.68;;;6.00;;
5754;SDS011;2902;42.130;24.732;2022-07-29T07:35:07;6.70;;;6.15;;
5754;SDS011;2902;42.130;24.732;2022-07-29T07:37:36;6.22;;;5.82;;
5754;SDS011;2902;42.130;24.732;2022-07-29T07:40:05;6.82;;;5.88;;
5754;SDS011;2902;42.130;24.732;2022-07-29T07:42:33;7.15;;;5.75;;
5754;SDS011;2902;42.130;24.732;2022-07-29T07:45:00;6.35;;;5.00;;
5754;SDS011;2902;42.130;24.732;2022-07-29T07:47:26;5.72;;;5.20;;
5754;SDS011;2902;42.130;24.732;2022-07-29T07:49:53;5.93;;;5.32;;
5754;SDS011;2902;42.130;24.732;2022-07-29T07:52:20;7.50;;;4.97;;
5754;SDS011;2902;42.130;24.732;2022-07-29T07:54:49;8.85;;;5.50;;
5754;SDS011;2902;42.130;24.732;2022-07-29T07:57:16;5.88;;;5.35;;
5754;SDS011;2902;42.130;24.732;2022-07-29T07:59:43;5.03;;;4.60;;
5754;SDS011;2902;42.130;24.732;2022-07-29T08:02:09;5.00;;;4.55;;
5754;SDS011;2902;42.130;24.732;2022-07-29T08:04:36;6.32;;;4.22;;
5754;SDS011;2902;42.130;24.732;2022-07-29T08:07:05;5.60;;;4.75;;
5754;SDS011;2902;42.130;24.732;2022-07-29T08:09:33;6.18;;;3.92;;
5754;SDS011;2902;42.130;24.732;2022-07-29T08:12:02;4.05;;;2.70;;
5754;SDS011;2902;42.130;24.732;2022-07-29T08:14:30;5.35;;;3.03;;
5754;SDS011;2902;42.130;24.732;2022-07-29T08:16:58;13.13;;;3.33;;
5754;SDS011;2902;42.130;24.732;2022-07-29T08:19:25;5.07;;;3.60;;
5754;SDS011;2902;42.130;24.732;2022-07-29T08:21:52;4.55;;;3.10;;
5754;SDS011;2902;42.130;24.732;2022-07-29T08:24:19;3.58;;;2.75;;
5754;SDS011;2902;42.130;24.732;2022-07-29T08:27:05;3.13;;;2.90;;
5754;SDS011;2902;42.130;24.732;2022-07-29T08:29:32;4.22;;;2.78;;
5754;SDS011;2902;42.130;24.732;2022-07-29T08:31:59;3.05;;;2.90;;
5754;SDS011;2902;42.130;24.732;2022-07-29T08:34:26;3.33;;;3.03;;
5754;SDS011;2902;42.130;24.732;2022-07-29T08:36:53;6.63;;;3.25;;
5754;SDS011;2902;42.130;24.732;2022-07-29T08:39:20;3.83;;;3.53;;
5754;SDS011;2902;42.130;24.732;2022-07-29T08:41:47;3.92;;;3.38;;
5754;SDS011;2902;42.130;24.732;2022-07-29T08:44:17;3.53;;;2.95;;
5754;SDS011;2902;42.130;24.732;2022-07-29T08:46:44;3.25;;;3.10;;
5754;SDS011;2902;42.130;24.732;2022-07-29T08:49:11;3.92;;;3.20;;
5754;SDS011;2902;42.130;24.732;2022-07-29T08:51:39;3.70;;;3.40;;
5754;SDS011;2902;42.130;24.732;2022-07-29T08:54:07;4.32;;;3.92;;
5754;SDS011;2902;42.130;24.732;2022-07-29T08:56:35;3.92;;;3.55;;
5754;SDS011;2902;42.130;24.732;2022-07-29T08:59:02;5.95;;;3.83;;
5754;SDS011;2902;42.130;24.732;2022-07-29T09:01:32;3.95;;;3.75;;
5754;SDS011;2902;42.130;24.732;2022-07-29T09:04:01;3.92;;;3.33;;
5754;SDS011;2902;42.130;24.732;2022-07-29T09:06:31;3.83;;;2.95;;
5754;SDS011;2902;42.130;24.732;2022-07-29T09:09:00;4.97;;;3.53;;
5754;SDS011;2902;42.130;24.732;2022-07-29T09:11:27;3.50;;;3.20;;
5754;SDS011;2902;42.130;24.732;2022-07-29T09:13:54;4.28;;;3.25;;
5754;SDS011;2902;42.130;24.732;2022-07-29T09:16:21;5.90;;;3.15;;
5754;SDS011;2902;42.130;24.732;2022-07-29T09:18:49;3.47;;;3.28;;
5754;SDS011;2902;42.130;24.732;2022-07-29T09:21:16;5.85;;;3.45;;
5754;SDS011;2902;42.130;24.732;2022-07-29T09:24:02;3.67;;;3.38;;
5754;SDS011;2902;42.130;24.732;2022-07-29T09:26:33;4.13;;;2.70;;
5754;SDS011;2902;42.130;24.732;2022-07-29T09:29:07;3.05;;;2.85;;
5754;SDS011;2902;42.130;24.732;2022-07-29T09:31:37;5.28;;;2.90;;
5754;SDS011;2902;42.130;24.732;2022-07-29T09:34:06;2.60;;;2.47;;
5754;SDS011;2902;42.130;24.732;2022-07-29T09:36:38;3.15;;;2.38;;
5754;SDS011;2902;42.130;24.732;2022-07-29T09:39:06;4.45;;;2.40;;
5754;SDS011;2902;42.130;24.732;2022-07-29T09:41:43;3.47;;;2.58;;
5754;SDS011;2902;42.130;24.732;2022-07-29T09:44:11;3.00;;;2.67;;
5754;SDS011;2902;42.130;24.732;2022-07-29T09:46:40;3.03;;;2.72;;
5754;SDS011;2902;42.130;24.732;2022-07-29T09:49:09;3.13;;;2.30;;
5754;SDS011;2902;42.130;24.732;2022-07-29T09:51:37;2.33;;;2.22;;
5754;SDS011;2902;42.130;24.732;2022-07-29T09:56:50;2.40;;;2.30;;
5754;SDS011;2902;42.130;24.732;2022-07-29T09:59:17;2.70;;;2.53;;
5754;SDS011;2902;42.130;24.732;2022-07-29T10:01:45;2.90;;;2.70;;
5754;SDS011;2902;42.130;24.732;2022-07-29T10:04:13;2.40;;;2.28;;
5754;SDS011;2902;42.130;24.732;2022-07-29T10:06:54;2.60;;;2.50;;
5754;SDS011;2902;42.130;24.732;2022-07-29T10:09:22;2.88;;;2.75;;
5754;SDS011;2902;42.130;24.732;2022-07-29T10:12:02;5.53;;;2.40;;
5754;SDS011;2902;42.130;24.732;2022-07-29T10:14:31;4.65;;;2.78;;
5754;SDS011;2902;42.130;24.732;2022-07-29T10:16:58;5.50;;;2.53;;
5754;SDS011;2902;42.130;24.732;2022-07-29T10:19:27;2.72;;;2.50;;
5754;SDS011;2902;42.130;24.732;2022-07-29T10:21:55;2.53;;;2.33;;
5754;SDS011;2902;42.130;24.732;2022-07-29T10:24:23;3.05;;;2.53;;
5754;SDS011;2902;42.130;24.732;2022-07-29T10:26:51;2.67;;;2.30;;
5754;SDS011;2902;42.130;24.732;2022-07-29T10:29:19;2.90;;;2.78;;
5754;SDS011;2902;42.130;24.732;2022-07-29T10:31:48;2.60;;;2.40;;
5754;SDS011;2902;42.130;24.732;2022-07-29T10:34:23;2.05;;;1.95;;
5754;SDS011;2902;42.130;24.732;2022-07-29T10:37:03;2.33;;;2.20;;
5754;SDS011;2902;42.130;24.732;2022-07-29T10:39:46;3.50;;;2.40;;
5754;SDS011;2902;42.130;24.732;2022-07-29T10:42:22;3.33;;;2.70;;
5754;SDS011;2902;42.130;24.732;2022-07-29T10:44:51;4.57;;;2.00;;
5754;SDS011;2902;42.130;24.732;2022-07-29T10:47:20;2.50;;;2.40;;
5754;SDS011;2902;42.130;24.732;2022-07-29T10:49:59;2.50;;;2.30;;
5754;SDS011;2902;42.130;24.732;2022-07-29T10:55:31;3.60;;;2.67;;
5754;SDS011;2902;42.130;24.732;2022-07-29T10:58:12;4.63;;;2.90;;
5754;SDS011;2902;42.130;24.732;2022-07-29T11:00:40;2.75;;;2.30;;
5754;SDS011;2902;42.130;24.732;2022-07-29T11:03:07;2.53;;;2.33;;
5754;SDS011;2902;42.130;24.732;2022-07-29T11:08:28;3.85;;;2.78;;
5754;SDS011;2902;42.130;24.732;2022-07-29T11:14:06;3.35;;;3.15;;
5754;SDS011;2902;42.130;24.732;2022-07-29T11:19:32;3.03;;;2.83;;
5754;SDS011;2902;42.130;24.732;2022-07-29T11:22:02;5.72;;;2.92;;
5754;SDS011;2902;42.130;24.732;2022-07-29T11:24:29;3.20;;;2.90;;
5754;SDS011;2902;42.130;24.732;2022-07-29T11:27:09;3.05;;;2.90;;
5754;SDS011;2902;42.130;24.732;2022-07-29T11:29:38;3.45;;;2.88;;
5754;SDS011;2902;42.130;24.732;2022-07-29T11:32:14;3.20;;;2.83;;
5754;SDS011;2902;42.130;24.732;2022-07-29T11:34:43;3.25;;;2.95;;
5754;SDS011;2902;42.130;24.732;2022-07-29T11:37:18;4.50;;;3.15;;
5754;SDS011;2902;42.130;24.732;2022-07-29T11:42:41;3.53;;;3.20;;
5754;SDS011;2902;42.130;24.732;2022-07-29T11:45:19;6.38;;;3.28;;
5754;SDS011;2902;42.130;24.732;2022-07-29T11:47:54;3.25;;;3.00;;
5754;SDS011;2902;42.130;24.732;2022-07-29T11:50:30;3.75;;;2.95;;
5754;SDS011;2902;42.130;24.732;2022-07-29T11:53:09;3.33;;;3.03;;
5754;SDS011;2902;42.130;24.732;2022-07-29T11:55:38;3.28;;;2.70;;
5754;SDS011;2902;42.130;24.732;2022-07-29T11:58:06;3.30;;;3.10;;
5754;SDS011;2902;42.130;24.732;2022-07-29T12:00:33;2.40;;;2.30;;
5754;SDS011;2902;42.130;24.732;2022-07-29T12:03:04;2.90;;;2.67;;
5754;SDS011;2902;42.130;24.732;2022-07-29T12:05:38;3.03;;;2.83;;
5754;SDS011;2902;42.130;24.732;2022-07-29T12:08:09;4.57;;;3.03;;
5754;SDS011;2902;42.130;24.732;2022-07-29T12:10:37;3.20;;;2.90;;
5754;SDS011;2902;42.130;24.732;2022-07-29T12:13:05;2.63;;;2.53;;
5754;SDS011;2902;42.130;24.732;2022-07-29T12:15:32;2.50;;;2.40;;
5754;SDS011;2902;42.130;24.732;2022-07-29T12:18:09;2.83;;;2.70;;
5754;SDS011;2902;42.130;24.732;2022-07-29T12:20:36;2.92;;;2.67;;
5754;SDS011;2902;42.130;24.732;2022-07-29T12:23:04;3.40;;;2.55;;
5754;SDS011;2902;42.130;24.732;2022-07-29T12:25:34;2.80;;;2.58;;
5754;SDS011;2902;42.130;24.732;2022-07-29T12:28:03;3.92;;;2.65;;
5754;SDS011;2902;42.130;24.732;2022-07-29T12:30:35;4.18;;;2.10;;
5754;SDS011;2902;42.130;24.732;2022-07-29T12:33:09;2.67;;;2.58;;
5754;SDS011;2902;42.130;24.732;2022-07-29T12:35:41;2.45;;;2.30;;
5754;SDS011;2902;42.130;24.732;2022-07-29T12:38:09;3.22;;;2.28;;
5754;SDS011;2902;42.130;24.732;2022-07-29T12:40:39;2.33;;;2.22;;
5754;SDS011;2902;42.130;24.732;2022-07-29T12:43:07;5.13;;;2.70;;
5754;SDS011;2902;42.130;24.732;2022-07-29T12:45:35;2.50;;;2.30;;
5754;SDS011;2902;42.130;24.732;2022-07-29T12:48:03;2.40;;;2.30;;
5754;SDS011;2902;42.130;24.732;2022-07-29T12:50:30;2.67;;;2.58;;
5754;SDS011;2902;42.130;24.732;2022-07-29T12:53:07;2.47;;;2.38;;
5754;SDS011;2902;42.130;24.732;2022-07-29T12:55:45;3.35;;;2.30;;
5754;SDS011;2902;42.130;24.732;2022-07-29T12:58:14;2.90;;;2.80;;
5754;SDS011;2902;42.130;24.732;2022-07-29T13:00:59;5.22;;;2.75;;
5754;SDS011;2902;42.130;24.732;2022-07-29T13:03:26;2.75;;;2.55;;
5754;SDS011;2902;42.130;24.732;2022-07-29T13:05:53;3.05;;;2.85;;
5754;SDS011;2902;42.130;24.732;2022-07-29T13:08:20;3.63;;;2.90;;
5754;SDS011;2902;42.130;24.732;2022-07-29T13:10:49;3.05;;;2.85;;
5754;SDS011;2902;42.130;24.732;2022-07-29T13:13:16;3.22;;;3.03;;
5754;SDS011;2902;42.130;24.732;2022-07-29T13:15:44;4.07;;;2.95;;
5754;SDS011;2902;42.130;24.732;2022-07-29T13:20:55;3.33;;;3.13;;
5754;SDS011;2902;42.130;24.732;2022-07-29T13:23:22;3.40;;;2.85;;
5754;SDS011;2902;42.130;24.732;2022-07-29T13:25:50;4.50;;;3.35;;
5754;SDS011;2902;42.130;24.732;2022-07-29T13:28:17;3.17;;;3.00;;
5754;SDS011;2902;42.130;24.732;2022-07-29T13:30:44;3.30;;;3.00;;
5754;SDS011;2902;42.130;24.732;2022-07-29T13:33:11;4.57;;;3.50;;
5754;SDS011;2902;42.130;24.732;2022-07-29T13:35:37;2.97;;;2.88;;
5754;SDS011;2902;42.130;24.732;2022-07-29T13:38:04;3.17;;;3.00;;
5754;SDS011;2902;42.130;24.732;2022-07-29T13:40:31;3.42;;;3.30;;
5754;SDS011;2902;42.130;24.732;2022-07-29T13:43:01;3.47;;;3.28;;
5754;SDS011;2902;42.130;24.732;2022-07-29T13:45:28;3.90;;;2.85;;
5754;SDS011;2902;42.130;24.732;2022-07-29T13:47:55;3.80;;;3.30;;
5754;SDS011;2902;42.130;24.732;2022-07-29T13:50:21;3.58;;;3.20;;
5754;SDS011;2902;42.130;24.732;2022-07-29T13:52:48;3.70;;;3.10;;
5754;SDS011;2902;42.130;24.732;2022-07-29T13:55:16;4.40;;;3.38;;
5754;SDS011;2902;42.130;24.732;2022-07-29T13:57:42;3.60;;;3.30;;
5754;SDS011;2902;42.130;24.732;2022-07-29T14:00:11;3.00;;;2.90;;
5754;SDS011;2902;42.130;24.732;2022-07-29T14:02:40;3.13;;;2.92;;
5754;SDS011;2902;42.130;24.732;2022-07-29T14:05:07;4.13;;;3.58;;
5754;SDS011;2902;42.130;24.732;2022-07-29T14:07:35;3.53;;;2.83;;
5754;SDS011;2902;42.130;24.732;2022-07-29T14:10:02;3.10;;;3.00;;
5754;SDS011;2902;42.130;24.732;2022-07-29T14:12:29;3.38;;;3.08;;
5754;SDS011;2902;42.130;24.732;2022-07-29T14:14:56;4.63;;;2.90;;
5754;SDS011;2902;42.130;24.732;2022-07-29T14:17:24;3.45;;;3.15;;
5754;SDS011;2902;42.130;24.732;2022-07-29T14:19:51;3.05;;;2.85;;
5754;SDS011;2902;42.130;24.732;2022-07-29T14:22:18;3.10;;;2.90;;
5754;SDS011;2902;42.130;24.732;2022-07-29T14:24:45;3.13;;;2.92;;
5754;SDS011;2902;42.130;24.732;2022-07-29T14:27:11;2.75;;;2.55;;
5754;SDS011;2902;42.130;24.732;2022-07-29T14:29:38;2.88;;;2.50;;
5754;SDS011;2902;42.130;24.732;2022-07-29T14:32:05;3.58;;;2.90;;
5754;SDS011;2902;42.130;24.732;2022-07-29T14:34:34;2.80;;;2.63;;
5754;SDS011;2902;42.130;24.732;2022-07-29T14:37:00;2.85;;;2.70;;
5754;SDS011;2902;42.130;24.732;2022-07-29T14:39:27;3.17;;;2.58;;
5754;SDS011;2902;42.130;24.732;2022-07-29T14:41:55;3.08;;;2.55;;
5754;SDS011;2902;42.130;24.732;2022-07-29T14:44:21;2.78;;;2.58;;
5754;SDS011;2902;42.130;24.732;2022-07-29T14:46:48;2.60;;;2.40;;
5754;SDS011;2902;42.130;24.732;2022-07-29T14:49:15;3.38;;;2.70;;
5754;SDS011;2902;42.130;24.732;2022-07-29T14:51:43;5.15;;;2.88;;
5754;SDS011;2902;42.130;24.732;2022-07-29T14:54:10;2.70;;;2.50;;
5754;SDS011;2902;42.130;24.732;2022-07-29T14:56:37;2.80;;;2.60;;
5754;SDS011;2902;42.130;24.732;2022-07-29T14:59:03;2.55;;;2.35;;
5754;SDS011;2902;42.130;24.732;2022-07-29T15:01:30;2.60;;;2.50;;
5754;SDS011;2902;42.130;24.732;2022-07-29T15:03:57;2.63;;;2.53;;
5754;SDS011;2902;42.130;24.732;2022-07-29T15:06:24;3.58;;;2.40;;
5754;SDS011;2902;42.130;24.732;2022-07-29T15:08:52;2.50;;;2.40;;
5754;SDS011;2902;42.130;24.732;2022-07-29T15:11:19;3.50;;;3.30;;
5754;SDS011;2902;42.130;24.732;2022-07-29T15:13:45;2.80;;;2.70;;
5754;SDS011;2902;42.130;24.732;2022-07-29T15:16:12;4.53;;;2.50;;
5754;SDS011;2902;42.130;24.732;2022-07-29T15:18:39;3.28;;;3.08;;
5754;SDS011;2902;42.130;24.732;2022-07-29T15:21:06;2.85;;;2.65;;
5754;SDS011;2902;42.130;24.732;2022-07-29T15:23:33;2.67;;;2.47;;
5754;SDS011;2902;42.130;24.732;2022-07-29T15:26:02;2.78;;;2.50;;
5754;SDS011;2902;42.130;24.732;2022-07-29T15:28:29;2.67;;;2.50;;
5754;SDS011;2902;42.130;24.732;2022-07-29T15:30:56;2.65;;;2.50;;
5754;SDS011;2902;42.130;24.732;2022-07-29T15:33:23;2.90;;;2.72;;
5754;SDS011;2902;42.130;24.732;2022-07-29T15:35:50;3.72;;;3.53;;
5754;SDS011;2902;42.130;24.732;2022-07-29T15:38:17;3.60;;;2.95;;
5754;SDS011;2902;42.130;24.732;2022-07-29T15:40:43;4.40;;;2.47;;
5754;SDS011;2902;42.130;24.732;2022-07-29T15:43:12;5.75;;;5.45;;
5754;SDS011;2902;42.130;24.732;2022-07-29T15:45:41;6.13;;;3.63;;
5754;SDS011;2902;42.130;24.732;2022-07-29T15:48:29;3.67;;;3.28;;
5754;SDS011;2902;42.130;24.732;2022-07-29T15:50:56;2.80;;;2.70;;
5754;SDS011;2902;42.130;24.732;2022-07-29T15:53:23;4.57;;;3.30;;
5754;SDS011;2902;42.130;24.732;2022-07-29T15:55:49;3.40;;;3.25;;
5754;SDS011;2902;42.130;24.732;2022-07-29T15:58:18;3.58;;;3.25;;
5754;SDS011;2902;42.130;24.732;2022-07-29T16:00:44;3.40;;;3.10;;
5754;SDS011;2902;42.130;24.732;2022-07-29T16:03:11;2.90;;;2.80;;
5754;SDS011;2902;42.130;24.732;2022-07-29T16:05:38;3.67;;;3.33;;
5754;SDS011;2902;42.130;24.732;2022-07-29T16:08:05;3.42;;;3.13;;
5754;SDS011;2902;42.130;24.732;2022-07-29T16:10:32;4.00;;;3.50;;
5754;SDS011;2902;42.130;24.732;2022-07-29T16:12:59;3.88;;;3.13;;
5754;SDS011;2902;42.130;24.732;2022-07-29T16:15:27;2.97;;;2.75;;
5754;SDS011;2902;42.130;24.732;2022-07-29T16:17:53;3.72;;;2.92;;
5754;SDS011;2902;42.130;24.732;2022-07-29T16:20:20;7.88;;;3.00;;